Time;durP1;ratioP1;P1;durP2;ratioP2;P2;SDS_P1;SDS_P2;PMS_P1;PMS_P2;Temp;Humidity;BMP_temperature;BMP_pressure;BME280_temperature;BME280_humidity;BME280_pressure;Samples;Min_cycle;Max_cycle;Signal;HPM_P1;HPM_P2
2022/11/22 00:01:09;;;;;;;36.65;16.00;;;3.20;99.90;;;;;;4987455;28;20046;-70
2022/11/22 00:03:35;;;;;;;38.65;20.00;;;3.20;99.90;;;;;;4995031;28;20057;-69
2022/11/22 00:06:01;;;;;;;34.88;17.92;;;3.20;99.90;;;;;;4992236;28;20054;-70
2022/11/22 00:08:26;;;;;;;34.67;17.35;;;3.20;99.90;;;;;;4997397;28;20104;-69
2022/11/22 00:10:52;;;;;;;38.75;17.23;;;3.20;99.90;;;;;;4990111;28;20131;-70
2022/11/22 00:13:18;;;;;;;34.58;18.02;;;3.10;99.90;;;;;;5004685;28;20108;-70
2022/11/22 00:15:44;;;;;;;35.78;16.88;;;3.20;99.90;;;;;;5000467;28;20096;-70
2022/11/22 00:18:10;;;;;;;38.00;18.10;;;3.10;99.90;;;;;;4993211;28;20050;-69
2022/11/22 00:20:36;;;;;;;33.05;17.27;;;3.10;99.90;;;;;;4992931;28;20041;-70
2022/11/22 00:23:02;;;;;;;32.10;17.08;;;3.10;99.90;;;;;;5005124;28;20099;-70
2022/11/22 00:25:28;;;;;;;33.95;16.70;;;3.10;99.90;;;;;;4992430;28;20161;-70
2022/11/22 00:27:54;;;;;;;36.20;17.33;;;3.20;99.90;;;;;;5004855;28;20139;-69
2022/11/22 00:30:20;;;;;;;36.63;16.23;;;3.10;99.90;;;;;;5004566;28;20080;-69
2022/11/22 00:32:47;;;;;;;33.25;16.80;;;3.10;99.90;;;;;;5004947;28;20073;-70
2022/11/22 00:35:13;;;;;;;33.33;16.92;;;3.10;99.90;;;;;;5003803;28;20092;-70
2022/11/22 00:37:38;;;;;;;34.10;16.92;;;3.10;99.90;;;;;;5004243;28;20565;-69
2022/11/22 00:40:05;;;;;;;33.08;16.45;;;3.10;99.90;;;;;;4989384;28;20717;-69
2022/11/22 00:42:31;;;;;;;34.45;16.13;;;3.10;99.90;;;;;;5004917;28;20443;-69
2022/11/22 00:44:56;;;;;;;31.55;16.30;;;3.10;99.90;;;;;;5003745;28;20124;-69
2022/11/22 00:47:22;;;;;;;33.50;16.70;;;3.10;99.90;;;;;;5004843;28;20045;-69
2022/11/22 00:49:48;;;;;;;33.20;17.67;;;3.10;99.90;;;;;;5005265;28;20056;-69
2022/11/22 00:52:14;;;;;;;34.53;17.20;;;3.50;99.90;;;;;;5005716;28;20088;-69
2022/11/22 00:54:39;;;;;;;34.15;17.88;;;3.10;99.90;;;;;;5005232;28;20042;-70
2022/11/22 00:57:05;;;;;;;35.42;16.50;;;3.10;99.90;;;;;;5002958;28;20048;-69
2022/11/22 00:59:31;;;;;;;37.08;16.73;;;3.00;99.90;;;;;;5009168;28;20475;-69
2022/11/22 01:01:56;;;;;;;35.33;17.55;;;3.00;99.90;;;;;;5004086;28;20049;-70
2022/11/22 01:04:22;;;;;;;34.30;17.88;;;3.00;99.90;;;;;;4985124;28;20472;-70
2022/11/22 01:06:48;;;;;;;35.22;17.42;;;3.00;99.90;;;;;;5005231;28;20038;-70
2022/11/22 01:09:22;;;;;;;33.45;17.35;;;3.00;99.90;;;;;;5005528;28;20046;-70
2022/11/22 01:11:48;;;;;;;32.42;16.95;;;3.00;99.90;;;;;;5004683;28;20037;-70
2022/11/22 01:14:15;;;;;;;33.60;17.38;;;3.00;99.90;;;;;;4988434;28;20384;-69
2022/11/22 01:16:41;;;;;;;31.23;17.13;;;2.90;99.90;;;;;;5003812;28;20470;-69
2022/11/22 01:19:07;;;;;;;35.78;16.90;;;2.90;99.90;;;;;;5004538;28;20150;-70
2022/11/22 01:21:33;;;;;;;36.85;17.92;;;2.90;99.90;;;;;;5004413;28;20052;-69
2022/11/22 01:23:59;;;;;;;34.55;17.98;;;2.90;99.90;;;;;;5004520;28;20046;-69
2022/11/22 01:26:28;;;;;;;33.20;18.17;;;2.90;99.90;;;;;;5004943;28;20042;-69
2022/11/22 01:28:54;;;;;;;37.28;18.35;;;2.90;99.90;;;;;;5003568;28;20475;-70
2022/11/22 01:31:19;;;;;;;37.58;18.30;;;2.90;99.90;;;;;;5007083;28;20054;-69
2022/11/22 01:33:45;;;;;;;38.25;18.55;;;2.80;99.90;;;;;;5008489;28;20050;-69
2022/11/22 01:36:11;;;;;;;36.80;18.80;;;2.90;99.90;;;;;;5008114;28;20046;-69
2022/11/22 01:38:37;;;;;;;32.33;17.10;;;2.80;99.90;;;;;;5008175;28;20085;-69
2022/11/22 01:41:02;;;;;;;40.42;18.73;;;2.90;99.90;;;;;;5008688;28;20045;-69
2022/11/22 01:43:28;;;;;;;41.33;19.83;;;2.90;99.90;;;;;;5007993;28;20613;-69
2022/11/22 01:45:56;;;;;;;37.42;18.90;;;2.80;99.90;;;;;;5005930;28;20049;-69
2022/11/22 01:48:43;;;;;;;40.75;19.05;;;3.10;99.90;;;;;;5006334;28;20045;-69
2022/11/22 01:51:39;;;;;;;39.35;19.92;;;2.80;99.90;;;;;;4989293;28;20050;-69
2022/11/22 01:54:11;;;;;;;38.28;18.77;;;2.80;99.90;;;;;;5006251;28;20687;-69
2022/11/22 01:56:40;;;;;;;41.03;19.85;;;2.80;99.90;;;;;;5005390;28;20050;-70
2022/11/22 01:59:12;;;;;;;40.25;19.13;;;2.70;99.90;;;;;;5006710;28;20503;-70
2022/11/22 02:01:38;;;;;;;39.88;18.95;;;2.80;99.90;;;;;;5005997;28;20050;-70
2022/11/22 02:04:07;;;;;;;45.03;21.15;;;2.80;99.90;;;;;;5006736;28;20502;-69
2022/11/22 02:06:47;;;;;;;44.17;20.77;;;2.80;99.90;;;;;;4986448;28;20507;-70
2022/11/22 02:09:14;;;;;;;40.88;20.48;;;2.70;99.90;;;;;;4987003;28;20038;-69
2022/11/22 02:11:48;;;;;;;43.50;20.63;;;2.90;99.90;;;;;;5003008;28;20515;-69
2022/11/22 02:14:17;;;;;;;43.08;19.73;;;2.80;99.90;;;;;;4986625;28;20042;-70
2022/11/22 02:16:46;;;;;;;40.40;20.25;;;2.80;99.90;;;;;;4986895;28;20053;-70
2022/11/22 02:19:19;;;;;;;38.30;20.25;;;2.70;99.90;;;;;;4987603;28;20089;-70
2022/11/22 02:21:50;;;;;;;39.47;19.83;;;2.70;99.90;;;;;;4985560;28;20050;-69
2022/11/22 02:24:25;;;;;;;38.13;19.90;;;2.80;99.90;;;;;;4989456;28;20524;-69
2022/11/22 02:26:50;;;;;;;41.80;20.92;;;2.70;99.90;;;;;;4986546;28;20030;-70
2022/11/22 02:29:17;;;;;;;43.78;20.25;;;2.70;99.90;;;;;;4984951;28;20060;-70
2022/11/22 02:31:45;;;;;;;41.83;21.13;;;2.80;99.90;;;;;;4987932;28;20078;-70
2022/11/22 02:34:12;;;;;;;41.83;21.38;;;2.80;99.90;;;;;;4987928;28;20392;-69
2022/11/22 02:36:52;;;;;;;42.95;21.05;;;2.80;99.90;;;;;;4988337;28;20047;-70
2022/11/22 02:39:24;;;;;;;42.55;21.17;;;2.80;99.90;;;;;;4988095;28;20447;-70
2022/11/22 02:41:50;;;;;;;;;;;2.80;99.90;;;;;;4985964;28;20096;-69
2022/11/22 02:44:18;;;;;;;39.65;20.33;;;2.80;99.90;;;;;;4971294;28;19948;-73
2022/11/22 02:46:52;;;;;;;39.63;19.60;;;2.80;99.90;;;;;;4988222;28;20073;-74
2022/11/22 02:49:20;;;;;;;43.45;19.83;;;2.80;99.90;;;;;;4986003;28;20042;-73
2022/11/22 02:51:46;;;;;;;43.97;20.55;;;2.80;99.90;;;;;;4987980;28;20133;-73
2022/11/22 02:54:12;;;;;;;40.45;20.02;;;2.80;99.90;;;;;;4987489;28;20176;-73
2022/11/22 02:56:38;;;;;;;42.53;21.13;;;3.00;99.90;;;;;;4986036;28;20042;-73
2022/11/22 02:59:03;;;;;;;40.45;20.35;;;2.90;99.90;;;;;;5001965;28;20479;-73
2022/11/22 03:01:29;;;;;;;40.60;20.17;;;2.80;99.90;;;;;;4986436;28;20042;-73
2022/11/22 03:03:55;;;;;;;40.50;20.42;;;2.90;99.90;;;;;;4987233;28;20515;-74
2022/11/22 03:06:21;;;;;;;39.38;20.33;;;2.90;99.90;;;;;;4996498;28;20060;-74
2022/11/22 03:08:47;;;;;;;41.15;20.58;;;2.90;99.90;;;;;;4995208;28;20055;-73
2022/11/22 03:11:14;;;;;;;42.05;21.10;;;2.90;99.90;;;;;;4988752;28;20045;-73
2022/11/22 03:13:39;;;;;;;44.17;20.48;;;2.90;99.90;;;;;;4989821;28;20507;-73
2022/11/22 03:16:05;;;;;;;40.15;21.05;;;3.00;99.90;;;;;;4990419;28;20177;-73
2022/11/22 03:18:37;;;;;;;43.63;20.25;;;3.00;99.90;;;;;;4982812;28;20139;-73
2022/11/22 03:21:04;;;;;;;41.72;19.67;;;3.00;99.90;;;;;;4978039;28;20038;-72
2022/11/22 03:23:30;;;;;;;38.95;20.25;;;3.10;99.90;;;;;;4987390;28;20049;-73
2022/11/22 03:25:57;;;;;;;40.45;19.75;;;3.00;99.90;;;;;;4985571;28;20034;-70
2022/11/22 03:28:23;;;;;;;43.08;20.40;;;3.00;99.90;;;;;;4987685;28;20431;-70
2022/11/22 03:30:49;;;;;;;40.75;20.08;;;3.50;99.90;;;;;;4983815;28;20050;-70
2022/11/22 03:33:14;;;;;;;42.40;20.83;;;3.20;99.90;;;;;;4990407;28;20045;-70
2022/11/22 03:35:40;;;;;;;38.20;19.45;;;3.10;99.90;;;;;;4993111;28;20054;-70
2022/11/22 03:38:06;;;;;;;42.13;19.85;;;3.20;99.90;;;;;;4986144;28;20112;-70
2022/11/22 03:40:33;;;;;;;41.35;20.45;;;3.20;99.90;;;;;;4984298;28;20504;-70
2022/11/22 03:43:00;;;;;;;41.53;20.10;;;3.20;99.90;;;;;;4985978;28;20089;-70
2022/11/22 03:45:26;;;;;;;43.78;20.60;;;3.20;99.90;;;;;;4986489;28;20042;-70
2022/11/22 03:47:52;;;;;;;40.97;20.25;;;3.20;99.90;;;;;;4990301;28;20566;-70
2022/11/22 03:50:18;;;;;;;39.67;19.55;;;3.20;99.90;;;;;;4984663;28;20054;-70
2022/11/22 03:52:43;;;;;;;39.20;19.90;;;3.30;99.90;;;;;;4985650;28;20046;-72
2022/11/22 03:55:09;;;;;;;40.35;19.70;;;3.30;99.90;;;;;;4985493;28;20035;-69
2022/11/22 03:57:35;;;;;;;39.72;20.75;;;3.30;99.90;;;;;;4985308;28;20042;-70
2022/11/22 04:00:01;;;;;;;40.28;20.45;;;3.30;99.90;;;;;;4985860;28;20107;-70
2022/11/22 04:02:26;;;;;;;38.35;20.40;;;3.30;99.90;;;;;;4989897;28;20117;-70
2022/11/22 04:04:52;;;;;;;43.28;20.13;;;3.30;99.90;;;;;;4990828;28;20092;-72
2022/11/22 04:07:18;;;;;;;42.17;19.65;;;3.40;99.90;;;;;;5005796;28;20070;-73
2022/11/22 04:09:43;;;;;;;43.10;20.17;;;3.40;99.90;;;;;;5003321;28;20127;-72
2022/11/22 04:12:09;;;;;;;41.22;20.60;;;3.80;99.90;;;;;;5003635;28;20041;-72
2022/11/22 04:17:39;;;;;;;48.22;21.02;;;3.40;99.90;;;;;;5004125;28;20049;-72
2022/11/22 04:22:57;;;;;;;41.50;20.77;;;3.40;99.90;;;;;;4997648;28;20506;-71
2022/11/22 04:25:24;;;;;;;39.40;20.23;;;3.40;99.90;;;;;;5006184;28;20038;-72
2022/11/22 04:27:50;;;;;;;39.58;20.08;;;3.50;99.90;;;;;;4987963;28;20058;-71
2022/11/22 04:30:16;;;;;;;34.35;18.88;;;3.80;99.90;;;;;;5006598;28;20658;-72
2022/11/22 04:32:44;;;;;;;40.20;19.67;;;3.50;99.90;;;;;;5005657;28;20521;-71
2022/11/22 04:35:11;;;;;;;39.80;20.48;;;3.50;99.90;;;;;;5005392;28;20034;-71
2022/11/22 04:37:37;;;;;;;45.63;22.23;;;3.50;99.90;;;;;;5006059;28;20112;-71
2022/11/22 04:40:03;;;;;;;42.92;20.13;;;3.50;99.90;;;;;;5005371;28;20483;-71
2022/11/22 04:45:14;;;;;;;40.55;20.48;;;3.50;99.90;;;;;;5006255;28;20057;-71
2022/11/22 04:47:57;;;;;;;43.45;20.38;;;3.50;99.90;;;;;;5002096;28;20048;-71
2022/11/22 04:53:08;;;;;;;38.28;19.73;;;3.60;99.90;;;;;;4985948;28;20056;-71
2022/11/22 04:55:34;;;;;;;46.95;20.95;;;3.60;99.90;;;;;;5004069;28;20499;-71
2022/11/22 04:58:01;;;;;;;40.92;21.10;;;3.70;99.90;;;;;;5004784;28;20050;-71
2022/11/22 05:00:28;;;;;;;40.90;21.45;;;3.60;99.90;;;;;;5002325;28;20072;-71
2022/11/22 05:02:54;;;;;;;42.50;21.15;;;3.60;99.90;;;;;;4996836;28;20474;-71
2022/11/22 05:05:19;;;;;;;34.75;19.67;;;3.60;99.90;;;;;;4991953;28;20065;-71
2022/11/22 05:07:45;;;;;;;45.72;21.73;;;3.70;99.90;;;;;;5009223;28;20414;-72
2022/11/22 05:10:11;;;;;;;39.53;20.77;;;3.70;99.90;;;;;;5006615;28;20056;-72
2022/11/22 05:12:40;;;;;;;42.72;20.45;;;3.70;99.90;;;;;;5008787;28;20495;-71
2022/11/22 05:15:06;;;;;;;42.53;21.30;;;3.70;99.90;;;;;;5009873;28;20125;-71
2022/11/22 05:17:32;;;;;;;40.92;20.33;;;3.70;99.90;;;;;;4997398;28;20407;-71
2022/11/22 05:19:58;;;;;;;38.90;20.35;;;3.70;99.90;;;;;;5011113;28;20038;-72
2022/11/22 05:25:11;;;;;;;40.35;20.92;;;3.80;99.90;;;;;;5005493;28;20109;-71
2022/11/22 05:27:37;;;;;;;43.28;20.98;;;3.80;99.90;;;;;;4999563;28;20046;-71
2022/11/22 05:30:04;;;;;;;43.83;19.90;;;3.70;99.90;;;;;;5008384;28;20092;-71
2022/11/22 05:32:30;;;;;;;43.28;20.40;;;3.80;99.90;;;;;;5004886;28;20131;-71
2022/11/22 05:34:56;;;;;;;36.95;20.35;;;3.80;99.90;;;;;;4998394;28;20046;-71
2022/11/22 05:37:22;;;;;;;47.08;21.15;;;3.80;99.90;;;;;;5000716;28;20042;-72
2022/11/22 05:39:48;;;;;;;44.72;21.02;;;3.80;99.90;;;;;;4995329;28;20041;-71
2022/11/22 05:42:13;;;;;;;44.85;20.85;;;3.90;99.90;;;;;;5002957;28;20831;-71
2022/11/22 05:44:39;;;;;;;43.20;19.92;;;3.90;99.90;;;;;;5006548;28;20128;-71
2022/11/22 05:47:05;;;;;;;40.10;20.70;;;4.00;99.90;;;;;;5006781;28;20069;-71
2022/11/22 05:49:31;;;;;;;41.25;21.17;;;3.90;99.90;;;;;;4991748;28;20053;-70
2022/11/22 05:51:57;;;;;;;40.60;20.40;;;3.90;99.90;;;;;;5008299;28;20169;-70
2022/11/22 05:54:23;;;;;;;41.63;20.90;;;3.90;99.90;;;;;;5003824;28;20133;-70
2022/11/22 05:56:49;;;;;;;40.85;20.73;;;4.00;99.90;;;;;;5007540;28;20042;-70
2022/11/22 05:59:14;;;;;;;43.00;20.15;;;3.90;99.90;;;;;;5008398;28;20049;-71
2022/11/22 06:01:40;;;;;;;44.65;21.13;;;4.40;99.90;;;;;;5002575;28;20139;-70
2022/11/22 06:04:06;;;;;;;43.70;20.73;;;4.00;99.90;;;;;;5004795;28;20132;-71
2022/11/22 06:06:32;;;;;;;39.67;20.55;;;4.00;99.90;;;;;;4997503;28;20435;-70
2022/11/22 06:08:58;;;;;;;41.33;19.52;;;4.10;99.90;;;;;;4982490;28;20400;-71
2022/11/22 06:11:27;;;;;;;39.63;19.23;;;4.40;99.90;;;;;;4991231;28;20732;-71
2022/11/22 06:13:58;;;;;;;46.65;20.95;;;4.10;99.90;;;;;;4991345;28;20496;-71
2022/11/22 06:16:25;;;;;;;42.50;20.55;;;4.10;99.90;;;;;;4993211;28;20056;-71
2022/11/22 06:18:52;;;;;;;41.88;20.85;;;4.10;99.90;;;;;;4992035;28;20084;-72
2022/11/22 06:21:24;;;;;;;44.47;21.92;;;4.10;99.90;;;;;;4979271;28;20437;-72
2022/11/22 06:23:52;;;;;;;37.78;19.92;;;4.10;99.90;;;;;;4991887;28;20133;-72
2022/11/22 06:26:19;;;;;;;40.28;20.25;;;4.10;99.90;;;;;;4995034;28;20874;-70
2022/11/22 06:28:46;;;;;;;39.95;19.38;;;4.30;99.90;;;;;;4983653;28;21350;-72
2022/11/22 06:31:14;;;;;;;38.60;20.45;;;4.20;99.90;;;;;;5000145;28;20033;-71
2022/11/22 06:33:41;;;;;;;37.33;19.08;;;4.20;99.90;;;;;;4980797;28;20274;-71
2022/11/22 06:36:11;;;;;;;42.67;20.42;;;4.20;99.90;;;;;;4987552;28;20050;-71
2022/11/22 06:38:38;;;;;;;44.08;20.98;;;4.20;99.90;;;;;;4997467;28;20045;-71
2022/11/22 06:41:07;;;;;;;39.72;19.58;;;4.20;99.90;;;;;;4991118;28;20050;-71
2022/11/22 06:43:34;;;;;;;45.53;19.70;;;4.20;99.90;;;;;;4990291;28;20046;-69
2022/11/22 06:46:01;;;;;;;36.03;19.35;;;4.30;99.90;;;;;;4994150;28;20080;-69
2022/11/22 06:48:32;;;;;;;40.38;19.05;;;4.30;99.90;;;;;;4969319;28;20058;-71
2022/11/22 06:51:18;;;;;;;39.28;18.65;;;4.30;99.90;;;;;;4986693;28;20049;-70
2022/11/22 06:53:45;;;;;;;38.97;17.92;;;4.30;99.90;;;;;;4980417;28;20517;-70
2022/11/22 06:56:14;;;;;;;45.13;19.77;;;4.50;99.90;;;;;;4999761;28;20080;-72
2022/11/22 06:58:40;;;;;;;41.90;19.83;;;4.30;99.90;;;;;;4996752;28;20038;-72
2022/11/22 07:01:10;;;;;;;40.50;18.75;;;4.30;99.90;;;;;;4979691;28;20046;-71
2022/11/22 07:03:37;;;;;;;43.13;20.20;;;4.30;99.90;;;;;;4994065;28;20046;-72
2022/11/22 07:06:05;;;;;;;32.45;18.85;;;4.40;99.90;;;;;;4995871;28;20123;-72
2022/11/22 07:08:31;;;;;;;38.75;18.23;;;4.40;99.90;;;;;;5002264;28;20515;-73
2022/11/22 07:11:10;;;;;;;39.67;18.52;;;4.50;99.90;;;;;;5000304;28;20096;-72
2022/11/22 07:13:36;;;;;;;41.78;18.00;;;4.40;99.90;;;;;;4983345;28;20050;-72
2022/11/22 07:16:04;;;;;;;41.17;19.10;;;4.50;99.90;;;;;;5001240;28;20046;-72
2022/11/22 07:18:43;;;;;;;41.50;18.52;;;4.50;99.90;;;;;;4987279;28;20074;-71
2022/11/22 07:21:18;;;;;;;35.63;17.40;;;4.80;99.90;;;;;;4980701;28;20141;-71
2022/11/22 07:23:45;;;;;;;36.38;17.92;;;4.60;99.90;;;;;;4981784;28;20077;-71
2022/11/22 07:26:13;;;;;;;35.58;17.77;;;4.60;99.90;;;;;;4984515;28;20119;-71
2022/11/22 07:28:39;;;;;;;33.15;17.20;;;4.60;99.90;;;;;;4997476;28;20422;-71
2022/11/22 07:31:07;;;;;;;33.65;16.15;;;4.70;99.90;;;;;;4999757;28;20572;-70
2022/11/22 07:33:33;;;;;;;34.17;16.70;;;4.70;99.90;;;;;;4984077;28;20511;-71
2022/11/22 07:36:07;;;;;;;39.40;15.00;;;4.80;99.90;;;;;;4986853;28;20060;-71
2022/11/22 07:38:33;;;;;;;34.05;14.35;;;4.80;99.90;;;;;;4990252;28;20124;-71
2022/11/22 07:40:59;;;;;;;32.08;14.43;;;4.80;99.90;;;;;;4996877;28;20054;-71
2022/11/22 07:43:28;;;;;;;36.75;14.48;;;4.90;99.90;;;;;;4994120;28;20049;-71
2022/11/22 07:46:01;;;;;;;34.22;13.60;;;4.90;99.90;;;;;;4967751;28;20053;-71
2022/11/22 07:48:26;;;;;;;28.23;12.90;;;4.90;99.90;;;;;;4969979;28;20077;-71
2022/11/22 07:50:52;;;;;;;29.65;12.30;;;4.90;99.90;;;;;;4995263;28;20147;-71
2022/11/22 07:53:18;;;;;;;25.15;11.55;;;5.00;99.90;;;;;;4988565;28;21058;-71
2022/11/22 07:55:44;;;;;;;28.73;11.23;;;4.90;99.90;;;;;;4993799;28;20038;-70
2022/11/22 07:58:09;;;;;;;33.13;11.63;;;5.00;99.90;;;;;;5001894;28;20046;-70
2022/11/22 08:00:35;;;;;;;25.17;11.73;;;5.00;99.90;;;;;;4999533;28;20046;-71
2022/11/22 08:03:01;;;;;;;26.95;10.27;;;5.20;99.90;;;;;;4997620;28;20048;-71
2022/11/22 08:05:27;;;;;;;30.45;10.70;;;5.00;99.90;;;;;;5000928;28;20634;-71
2022/11/22 08:07:53;;;;;;;27.90;9.50;;;5.00;99.90;;;;;;5000967;28;20066;-70
2022/11/22 08:10:20;;;;;;;28.08;9.35;;;5.10;99.90;;;;;;4978996;28;20240;-70
2022/11/22 08:12:45;;;;;;;27.83;8.73;;;5.40;99.90;;;;;;4994554;28;20057;-71
2022/11/22 08:15:13;;;;;;;23.35;8.93;;;5.10;99.90;;;;;;4995375;28;20053;-71
2022/11/22 08:17:39;;;;;;;18.67;8.80;;;5.10;99.90;;;;;;4996579;28;20100;-71
2022/11/22 08:20:08;;;;;;;21.58;8.98;;;5.10;99.90;;;;;;4976451;28;20081;-71
2022/11/22 08:22:35;;;;;;;26.80;8.02;;;5.10;99.90;;;;;;4992409;28;20038;-71
2022/11/22 08:25:00;;;;;;;25.83;8.13;;;5.60;99.90;;;;;;4994977;28;20045;-71
2022/11/22 08:27:26;;;;;;;22.38;9.05;;;5.20;99.90;;;;;;4993031;28;20044;-71
2022/11/22 08:29:52;;;;;;;23.60;7.57;;;5.10;99.90;;;;;;4997878;28;20136;-72
2022/11/22 08:32:17;;;;;;;26.27;8.00;;;5.10;99.90;;;;;;4993850;28;20081;-69
2022/11/22 08:34:43;;;;;;;18.90;7.13;;;5.10;99.90;;;;;;4997872;28;20133;-72
2022/11/22 08:37:09;;;;;;;23.58;7.55;;;5.10;99.90;;;;;;5000771;28;20053;-72
2022/11/22 08:39:34;;;;;;;24.10;6.63;;;5.10;99.90;;;;;;5000260;28;20049;-71
2022/11/22 08:42:00;;;;;;;22.05;7.82;;;5.30;99.90;;;;;;4993438;28;20050;-71
2022/11/22 08:44:26;;;;;;;18.48;6.57;;;5.10;99.90;;;;;;4992598;28;20133;-70
2022/11/22 08:46:51;;;;;;;20.90;6.70;;;5.10;99.90;;;;;;4999147;28;20049;-70
2022/11/22 08:49:17;;;;;;;21.35;6.30;;;5.10;99.90;;;;;;4985777;28;20179;-70
2022/11/22 08:51:44;;;;;;;23.70;6.35;;;5.10;99.90;;;;;;4998563;28;20050;-69
2022/11/22 08:54:13;;;;;;;18.30;5.60;;;5.20;99.90;;;;;;4996530;28;20119;-70
2022/11/22 08:56:39;;;;;;;17.98;4.93;;;5.10;99.90;;;;;;4997383;28;20160;-71
2022/11/22 08:59:05;;;;;;;20.85;5.55;;;5.10;99.90;;;;;;4999109;28;20099;-70
2022/11/22 09:01:31;;;;;;;21.52;5.80;;;5.20;99.90;;;;;;4997998;28;20034;-70
2022/11/22 09:03:57;;;;;;;18.83;6.65;;;5.10;99.90;;;;;;4996291;28;20068;-70
2022/11/22 09:06:23;;;;;;;21.55;4.60;;;5.20;99.90;;;;;;4992167;28;20054;-70
2022/11/22 09:08:49;;;;;;;17.90;4.72;;;5.10;99.90;;;;;;4983734;28;20561;-69
2022/11/22 09:11:17;;;;;;;17.90;4.95;;;5.10;99.90;;;;;;4999369;28;20046;-69
2022/11/22 09:13:43;;;;;;;17.33;4.13;;;5.20;99.90;;;;;;4997632;28;20084;-68
2022/11/22 09:16:19;;;;;;;20.45;4.50;;;5.10;99.90;;;;;;4990816;28;20045;-70
2022/11/22 09:18:46;;;;;;;12.77;4.30;;;5.10;99.90;;;;;;5001745;28;20285;-69
2022/11/22 09:21:16;;;;;;;16.48;4.20;;;5.20;99.90;;;;;;5002482;28;20092;-70
2022/11/22 09:23:43;;;;;;;19.73;5.10;;;5.10;99.90;;;;;;5002212;28;20061;-70
2022/11/22 09:26:14;;;;;;;17.33;4.20;;;5.20;99.90;;;;;;5005150;28;20037;-70
2022/11/22 09:28:41;;;;;;;21.60;5.50;;;5.30;99.90;;;;;;5001816;28;20682;-69
2022/11/22 09:31:12;;;;;;;21.52;4.32;;;5.20;99.90;;;;;;5000915;28;20125;-69
2022/11/22 09:33:44;;;;;;;21.40;4.93;;;5.20;99.90;;;;;;4997225;28;20097;-71
2022/11/22 09:36:14;;;;;;;18.70;4.57;;;5.20;99.90;;;;;;5002864;28;20577;-69
2022/11/22 09:38:39;;;;;;;22.55;4.78;;;5.20;99.90;;;;;;4998632;28;20129;-68
2022/11/22 09:41:24;;;;;;;15.43;4.40;;;5.20;99.90;;;;;;4998090;28;20044;-69
2022/11/22 09:44:02;;;;;;;13.85;3.83;;;5.20;99.90;;;;;;4998348;28;20042;-69
2022/11/22 09:46:53;;;;;;;20.00;5.05;;;5.30;99.90;;;;;;5003245;28;20161;-69
2022/11/22 09:49:27;;;;;;;14.93;4.50;;;5.20;99.90;;;;;;5000344;28;20050;-70
2022/11/22 09:52:08;;;;;;;13.15;5.20;;;5.30;99.90;;;;;;5000812;28;20070;-69
2022/11/22 09:54:50;;;;;;;19.40;5.63;;;5.20;99.90;;;;;;5000574;28;20046;-70
2022/11/22 09:57:25;;;;;;;21.98;5.40;;;5.20;99.90;;;;;;5002285;28;20399;-72
2022/11/22 10:00:01;;;;;;;16.27;5.82;;;5.20;99.90;;;;;;4982962;28;20046;-69
2022/11/22 10:02:42;;;;;;;13.52;5.20;;;5.20;99.90;;;;;;4999552;28;20089;-70
2022/11/22 10:05:20;;;;;;;19.98;5.03;;;5.20;99.90;;;;;;4999898;28;20054;-70
2022/11/22 10:08:16;;;;;;;23.00;5.38;;;5.20;99.90;;;;;;4997087;28;20132;-70
2022/11/22 10:10:43;;;;;;;17.63;5.10;;;5.20;99.90;;;;;;4993055;28;20058;-71
2022/11/22 10:13:14;;;;;;;19.85;5.63;;;5.20;99.90;;;;;;4989619;28;20046;-70
2022/11/22 10:16:02;;;;;;;17.60;5.15;;;5.20;99.90;;;;;;4982100;28;20052;-70
2022/11/22 10:18:39;;;;;;;11.70;4.50;;;5.30;99.90;;;;;;4968634;28;20068;-70
2022/11/22 10:21:13;;;;;;;19.75;4.53;;;5.30;99.90;;;;;;4992000;28;20057;-70
2022/11/22 10:23:43;;;;;;;15.85;4.22;;;5.30;99.90;;;;;;4989322;28;20049;-70
2022/11/22 10:26:31;;;;;;;18.20;4.80;;;5.40;99.90;;;;;;4973681;28;20046;-70
2022/11/22 10:29:09;;;;;;;14.57;4.13;;;5.40;99.90;;;;;;4975254;28;20359;-71
2022/11/22 10:31:51;;;;;;;15.50;3.95;;;5.40;99.90;;;;;;4985197;28;20296;-69
2022/11/22 10:34:28;;;;;;;12.95;3.80;;;5.40;99.90;;;;;;4960054;28;20072;-70
2022/11/22 10:37:03;;;;;;;11.80;3.30;;;5.50;99.90;;;;;;4987277;28;20045;-70
2022/11/22 10:39:38;;;;;;;17.02;3.53;;;5.60;99.90;;;;;;4986148;28;20050;-70
2022/11/22 10:42:22;;;;;;;9.27;3.72;;;5.50;99.90;;;;;;4984205;28;20046;-68
2022/11/22 10:44:57;;;;;;;13.07;3.40;;;5.50;99.90;;;;;;4982059;28;20056;-69
2022/11/22 10:47:35;;;;;;;9.80;3.47;;;5.80;99.90;;;;;;4981254;28;20356;-69
2022/11/22 10:50:21;;;;;;;16.70;3.38;;;5.60;99.90;;;;;;4971977;28;20085;-70
2022/11/22 10:53:08;;;;;;;15.68;3.28;;;5.70;99.90;;;;;;4984795;28;20049;-70
2022/11/22 10:55:45;;;;;;;11.70;2.90;;;5.70;99.90;;;;;;4990539;28;20064;-71
2022/11/22 10:58:32;;;;;;;15.40;2.95;;;5.70;99.90;;;;;;4978115;28;20046;-70
2022/11/22 11:01:16;;;;;;;11.93;2.65;;;5.80;99.90;;;;;;4972978;28;20107;-71
2022/11/22 11:03:50;;;;;;;13.15;3.15;;;5.80;99.90;;;;;;4987869;28;20053;-70
2022/11/22 11:06:22;;;;;;;14.57;3.15;;;5.80;99.90;;;;;;4990414;28;20062;-71
2022/11/22 11:09:03;;;;;;;12.90;2.90;;;5.90;99.90;;;;;;4988354;28;20050;-70
2022/11/22 11:11:29;;;;;;;10.77;2.63;;;5.80;99.90;;;;;;4987089;28;20462;-70
2022/11/22 11:14:05;;;;;;;7.25;2.13;;;6.30;99.90;;;;;;4981078;28;20049;-70
2022/11/22 11:16:35;;;;;;;9.23;2.25;;;5.90;99.90;;;;;;4990826;28;20054;-71
2022/11/22 11:19:15;;;;;;;11.00;2.30;;;5.90;99.90;;;;;;4992557;28;20049;-71
2022/11/22 11:21:40;;;;;;;9.35;2.38;;;5.90;99.90;;;;;;4986780;28;20053;-71
2022/11/22 11:24:16;;;;;;;13.52;2.40;;;5.90;99.90;;;;;;4984858;28;20120;-70
2022/11/22 11:26:50;;;;;;;11.05;2.88;;;6.20;99.90;;;;;;4984597;28;20054;-70
2022/11/22 11:29:18;;;;;;;11.18;3.25;;;5.90;99.90;;;;;;4989742;28;20054;-71
2022/11/22 11:31:48;;;;;;;9.48;2.35;;;6.00;99.90;;;;;;4989769;28;20559;-71
2022/11/22 11:34:27;;;;;;;13.70;2.75;;;6.00;99.90;;;;;;4970899;28;20050;-70
2022/11/22 11:36:59;;;;;;;12.00;2.42;;;6.10;99.90;;;;;;4980574;28;20058;-71
2022/11/22 11:39:28;;;;;;;;;;;6.10;99.90;;;;;;4980683;28;20070;-71
2022/11/22 11:41:59;;;;;;;11.90;3.45;;;6.10;99.90;;;;;;4990698;28;19921;-71
2022/11/22 11:44:35;;;;;;;13.73;3.72;;;6.10;99.90;;;;;;4993550;28;20065;-72
2022/11/22 11:47:04;;;;;;;10.32;2.42;;;6.20;99.90;;;;;;4996714;28;20050;-70
2022/11/22 11:49:32;;;;;;;12.27;2.42;;;6.20;99.90;;;;;;5000753;28;20046;-70
2022/11/22 11:52:27;;;;;;;12.02;2.53;;;6.30;99.90;;;;;;5000272;28;20041;-71
2022/11/22 11:54:58;;;;;;;12.63;2.25;;;6.30;99.90;;;;;;4996121;28;20058;-69
2022/11/22 11:57:32;;;;;;;8.43;2.13;;;6.40;99.90;;;;;;4975098;28;20136;-70
2022/11/22 12:00:04;;;;;;;13.35;1.92;;;6.50;99.90;;;;;;4989990;28;20088;-69
2022/11/22 12:02:37;;;;;;;9.40;2.50;;;6.50;99.90;;;;;;4990049;28;20046;-70
2022/11/22 12:05:25;;;;;;;8.23;2.40;;;6.50;99.90;;;;;;4997197;28;20038;-70
2022/11/22 12:07:51;;;;;;;11.23;2.45;;;6.60;99.90;;;;;;5000937;28;20057;-70
2022/11/22 12:10:58;;;;;;;12.07;2.50;;;6.50;99.90;;;;;;4987051;28;20046;-69
2022/11/22 12:13:42;;;;;;;11.40;2.00;;;6.60;99.90;;;;;;4916351;29;20485;-69
2022/11/22 12:16:28;;;;;;;10.00;2.05;;;6.60;99.90;;;;;;4973509;28;20053;-69
2022/11/22 12:19:44;;;;;;;10.20;1.83;;;6.60;99.90;;;;;;4991726;28;20046;-70
2022/11/22 12:22:21;;;;;;;11.85;2.67;;;6.60;99.90;;;;;;4908619;29;20447;-69
2022/11/22 12:24:56;;;;;;;8.40;2.10;;;6.60;99.90;;;;;;4905230;29;20138;-70
2022/11/22 12:27:22;;;;;;;11.68;2.33;;;6.60;99.90;;;;;;4958246;28;20069;-69
2022/11/22 12:29:47;;;;;;;11.48;1.98;;;6.60;99.90;;;;;;4971350;28;20113;-70
2022/11/22 12:32:31;;;;;;;8.43;2.00;;;6.60;99.90;;;;;;4989628;28;20050;-69
2022/11/22 12:35:06;;;;;;;8.43;2.08;;;6.60;99.90;;;;;;4984163;28;20428;-70
2022/11/22 12:38:00;;;;;;;9.32;1.80;;;6.60;99.90;;;;;;4981707;28;20046;-70
2022/11/22 12:40:36;;;;;;;8.85;2.10;;;6.60;99.90;;;;;;4984124;28;20049;-69
2022/11/22 12:43:13;;;;;;;10.18;2.30;;;6.60;99.90;;;;;;4999987;28;20054;-70
2022/11/22 12:45:43;;;;;;;8.40;1.90;;;6.60;99.90;;;;;;5000413;28;20045;-70
2022/11/22 12:48:19;;;;;;;11.02;2.67;;;6.60;99.90;;;;;;4997055;28;20045;-70
2022/11/22 12:50:49;;;;;;;10.52;2.35;;;6.70;99.90;;;;;;5000755;28;20550;-70
2022/11/22 12:53:21;;;;;;;12.50;2.25;;;6.60;99.90;;;;;;4981889;28;20294;-69
2022/11/22 12:56:08;;;;;;;9.52;1.65;;;6.60;99.90;;;;;;5000474;28;20466;-71
2022/11/22 12:59:13;;;;;;;11.60;2.05;;;6.60;99.90;;;;;;4981437;28;20054;-70
2022/11/22 13:01:38;;;;;;;10.57;1.98;;;6.60;99.90;;;;;;4978757;28;20065;-69
2022/11/22 13:04:10;;;;;;;10.77;2.00;;;6.70;99.90;;;;;;4996151;28;20053;-70
2022/11/22 13:06:57;;;;;;;;;;;6.70;99.90;;;;;;4996073;28;20065;-70
2022/11/22 13:09:28;;;;;;;6.93;2.10;;;6.70;99.90;;;;;;4997053;28;20043;-70
2022/11/22 13:12:09;;;;;;;10.10;1.83;;;6.70;99.90;;;;;;5000962;28;20049;-70